createdAt,value
2023-08-29T00:01:45.555Z,5.38
2023-08-29T00:04:13.112Z,7.35
2023-08-29T00:06:40.560Z,7.60
2023-08-29T00:09:09.466Z,6.78
2023-08-29T00:11:36.962Z,6.38
2023-08-29T00:14:04.421Z,5.68
2023-08-29T00:16:31.952Z,5.05
2023-08-29T00:18:59.461Z,4.70
2023-08-29T00:21:26.913Z,4.38
2023-08-29T00:23:54.343Z,4.72
2023-08-29T00:26:23.366Z,4.53
2023-08-29T00:28:52.638Z,5.80
2023-08-29T00:31:20.146Z,6.53
2023-08-29T00:33:47.589Z,6.18
2023-08-29T00:36:15.032Z,5.07
2023-08-29T00:38:42.600Z,5.20
2023-08-29T00:41:10.096Z,4.93
2023-08-29T00:43:39.138Z,4.38
2023-08-29T00:46:07.038Z,4.32
2023-08-29T00:48:35.625Z,4.85
2023-08-29T00:51:03.109Z,4.30
2023-08-29T00:53:30.784Z,4.80
2023-08-29T00:55:58.483Z,4.68
2023-08-29T00:58:26.000Z,4.43
2023-08-29T01:00:56.398Z,4.10
2023-08-29T01:03:24.196Z,4.65
2023-08-29T01:05:51.696Z,4.10
2023-08-29T01:08:19.278Z,4.15
2023-08-29T01:10:53.471Z,3.78
2023-08-29T01:13:27.816Z,4.10
2023-08-29T01:16:01.990Z,4.05
2023-08-29T01:18:32.658Z,4.18
2023-08-29T01:21:06.161Z,3.97
2023-08-29T01:23:40.029Z,3.60
2023-08-29T01:26:14.725Z,4.05
2023-08-29T01:28:44.727Z,4.10
2023-08-29T01:33:41.359Z,3.88
2023-08-29T01:36:09.186Z,3.75
2023-08-29T01:38:36.770Z,4.00
2023-08-29T01:41:04.755Z,4.20
2023-08-29T01:43:34.951Z,3.58
2023-08-29T01:46:02.585Z,3.80
2023-08-29T01:48:31.756Z,3.70
2023-08-29T01:50:59.571Z,3.60
2023-08-29T01:53:27.598Z,3.60
2023-08-29T01:55:56.552Z,3.63
2023-08-29T01:58:25.185Z,3.88
2023-08-29T02:00:54.493Z,3.60
2023-08-29T02:03:22.833Z,3.85
2023-08-29T02:05:50.338Z,4.18
2023-08-29T02:08:18.005Z,3.45
2023-08-29T02:10:45.483Z,3.60
2023-08-29T02:13:13.577Z,3.63
2023-08-29T02:15:41.036Z,6.43
2023-08-29T02:18:11.466Z,4.78
2023-08-29T02:20:39.312Z,4.30
2023-08-29T02:23:11.229Z,4.03
2023-08-29T02:25:38.690Z,3.97
2023-08-29T02:28:06.672Z,4.47
2023-08-29T02:30:36.457Z,4.30
2023-08-29T02:33:04.738Z,4.18
2023-08-29T02:35:33.672Z,4.13
2023-08-29T02:38:01.948Z,4.28
2023-08-29T02:40:33.339Z,4.68
2023-08-29T02:43:00.763Z,5.57
2023-08-29T02:45:29.636Z,5.63
2023-08-29T02:47:57.189Z,12.27
2023-08-29T02:50:25.216Z,14.98
2023-08-29T02:52:54.097Z,17.23
2023-08-29T02:55:21.656Z,14.77
2023-08-29T02:57:49.173Z,10.30
2023-08-29T03:00:17.456Z,7.28
2023-08-29T03:02:44.935Z,6.07
2023-08-29T03:05:12.514Z,5.70
2023-08-29T03:07:40.006Z,5.65
2023-08-29T03:10:09.949Z,6.07
2023-08-29T03:12:37.630Z,6.40
2023-08-29T03:15:05.787Z,6.50
2023-08-29T03:17:34.252Z,6.20
2023-08-29T03:20:02.686Z,6.30
2023-08-29T03:22:30.186Z,5.43
2023-08-29T03:24:57.620Z,4.78
2023-08-29T03:27:26.502Z,5.00
2023-08-29T03:29:53.986Z,5.10
2023-08-29T03:32:21.804Z,5.03
2023-08-29T03:34:52.888Z,5.10
2023-08-29T03:37:20.367Z,5.03
2023-08-29T03:39:47.943Z,4.72
2023-08-29T03:42:15.393Z,5.03
2023-08-29T03:44:44.350Z,5.53
2023-08-29T03:47:11.827Z,4.88
2023-08-29T03:49:39.852Z,5.10
2023-08-29T03:52:07.519Z,6.32
2023-08-29T03:54:35.617Z,5.13
2023-08-29T03:57:03.136Z,6.40
2023-08-29T03:59:31.391Z,6.47
2023-08-29T04:02:00.290Z,9.88
2023-08-29T04:04:28.015Z,10.68
2023-08-29T04:06:55.621Z,8.15
2023-08-29T04:09:23.117Z,10.23
2023-08-29T04:11:50.724Z,11.93
2023-08-29T04:14:18.229Z,8.93
2023-08-29T04:16:45.808Z,9.55
2023-08-29T04:19:14.811Z,8.82
2023-08-29T04:21:42.270Z,13.80
2023-08-29T04:24:10.960Z,8.65
2023-08-29T04:26:38.467Z,10.13
2023-08-29T04:29:06.005Z,8.75
2023-08-29T04:31:33.574Z,9.55
2023-08-29T04:34:01.113Z,15.27
2023-08-29T04:36:29.994Z,13.70
2023-08-29T04:38:57.488Z,6.57
2023-08-29T04:41:25.649Z,6.97
2023-08-29T04:43:53.095Z,9.82
2023-08-29T04:46:20.640Z,6.55
2023-08-29T04:48:48.137Z,8.43
2023-08-29T04:51:15.646Z,10.93
2023-08-29T04:53:44.631Z,9.40
2023-08-29T04:56:12.071Z,8.85
2023-08-29T04:58:39.577Z,8.65
2023-08-29T05:01:07.119Z,6.35
2023-08-29T05:03:35.214Z,7.97
2023-08-29T05:06:02.805Z,6.28
2023-08-29T05:08:31.795Z,5.88
2023-08-29T05:11:00.680Z,7.45
2023-08-29T05:13:28.298Z,7.15
2023-08-29T05:15:55.827Z,6.93
2023-08-29T05:18:24.243Z,8.27
2023-08-29T05:20:52.475Z,8.75
2023-08-29T05:23:21.613Z,7.05
2023-08-29T05:25:49.114Z,5.53
2023-08-29T05:28:18.156Z,4.80
2023-08-29T05:30:45.818Z,5.43
2023-08-29T05:33:13.959Z,8.13
2023-08-29T05:35:41.589Z,6.72
2023-08-29T05:38:09.202Z,8.00
2023-08-29T05:40:36.801Z,9.15
2023-08-29T05:43:04.559Z,9.15
2023-08-29T05:45:33.596Z,10.23
2023-08-29T05:48:01.169Z,9.20
2023-08-29T05:50:28.698Z,6.43
2023-08-29T05:52:56.390Z,6.50
2023-08-29T05:55:23.976Z,7.40
2023-08-29T05:57:51.490Z,7.32
2023-08-29T06:00:19.850Z,5.80
2023-08-29T06:02:48.864Z,5.70
2023-08-29T06:05:16.508Z,5.55
2023-08-29T06:07:44.810Z,4.60
2023-08-29T06:10:12.287Z,4.28
2023-08-29T06:12:39.962Z,4.30
2023-08-29T06:15:08.714Z,4.03
2023-08-29T06:17:36.187Z,5.90
2023-08-29T06:20:06.366Z,5.00
2023-08-29T06:22:34.037Z,7.10
2023-08-29T06:25:01.540Z,7.47
2023-08-29T06:27:29.049Z,7.07
2023-08-29T06:29:56.803Z,6.07
2023-08-29T06:32:24.356Z,6.43
2023-08-29T06:34:52.225Z,6.18
2023-08-29T06:37:21.457Z,5.70
2023-08-29T06:39:49.037Z,6.15
2023-08-29T06:42:16.567Z,6.15
2023-08-29T06:44:44.086Z,4.60
2023-08-29T06:47:11.522Z,4.78
2023-08-29T06:49:39.073Z,4.32
2023-08-29T06:52:07.011Z,3.80
2023-08-29T06:54:35.951Z,4.28
2023-08-29T06:57:03.521Z,3.88
2023-08-29T06:59:31.055Z,4.68
2023-08-29T07:01:58.636Z,5.28
2023-08-29T07:04:26.117Z,4.85
2023-08-29T07:06:54.890Z,4.55
2023-08-29T07:09:23.490Z,4.33
2023-08-29T07:11:52.362Z,4.38
2023-08-29T07:14:19.877Z,4.70
2023-08-29T07:17:00.109Z,4.38
2023-08-29T07:19:35.348Z,4.25
2023-08-29T07:22:03.270Z,4.15
2023-08-29T07:24:31.378Z,3.90
2023-08-29T07:27:00.311Z,3.90
2023-08-29T07:29:28.166Z,3.80
2023-08-29T07:31:55.673Z,3.42
2023-08-29T07:34:23.168Z,3.75
2023-08-29T07:36:50.781Z,3.40
2023-08-29T07:39:18.278Z,3.75
2023-08-29T07:41:45.838Z,3.97
2023-08-29T07:44:14.797Z,3.72
2023-08-29T07:46:50.194Z,4.28
2023-08-29T07:49:25.938Z,3.40
2023-08-29T07:51:53.388Z,3.60
2023-08-29T07:54:21.079Z,2.67
2023-08-29T07:56:49.184Z,2.65
2023-08-29T07:59:18.089Z,3.63
2023-08-29T08:01:45.607Z,2.78
2023-08-29T08:04:13.201Z,2.60
2023-08-29T08:06:40.720Z,2.58
2023-08-29T08:09:08.214Z,2.50
2023-08-29T08:11:35.664Z,2.35
2023-08-29T08:14:03.241Z,2.78
2023-08-29T08:16:32.151Z,3.08
2023-08-29T08:18:59.825Z,2.95
2023-08-29T08:21:27.370Z,3.05
2023-08-29T08:23:54.932Z,2.60
2023-08-29T08:26:23.018Z,2.50
2023-08-29T08:28:50.730Z,2.78
2023-08-29T08:31:18.227Z,2.53
2023-08-29T08:33:47.351Z,2.50
2023-08-29T08:36:14.910Z,2.70
2023-08-29T08:38:42.422Z,2.90
2023-08-29T08:41:11.723Z,2.50
2023-08-29T08:43:40.024Z,2.65
2023-08-29T08:46:08.731Z,3.13
2023-08-29T08:48:37.701Z,2.92
2023-08-29T08:51:07.264Z,2.58
2023-08-29T08:53:37.394Z,2.95
2023-08-29T08:56:05.603Z,2.40
2023-08-29T08:58:33.122Z,2.63
2023-08-29T09:01:00.677Z,2.53
2023-08-29T09:03:28.239Z,3.00
2023-08-29T09:05:56.267Z,2.67
2023-08-29T09:08:25.267Z,2.50
2023-08-29T09:10:53.504Z,2.45
2023-08-29T09:13:21.681Z,2.28
2023-08-29T09:15:49.335Z,2.28
2023-08-29T09:18:25.377Z,3.53
2023-08-29T09:20:53.674Z,2.80
2023-08-29T09:23:22.235Z,2.67
2023-08-29T09:25:58.404Z,3.20
2023-08-29T09:28:28.140Z,3.45
2023-08-29T09:33:23.369Z,3.20
2023-08-29T09:35:51.234Z,5.07
2023-08-29T09:38:19.235Z,3.70
2023-08-29T09:40:49.572Z,4.70
2023-08-29T09:43:19.026Z,4.32
2023-08-29T09:45:50.391Z,4.68
2023-08-29T09:48:18.181Z,4.60
2023-08-29T09:50:46.783Z,4.13
2023-08-29T09:53:16.426Z,4.00
2023-08-29T09:58:13.707Z,4.37
2023-08-29T10:00:42.741Z,4.30
2023-08-29T10:03:11.928Z,6.57
2023-08-29T10:05:42.337Z,5.90
2023-08-29T10:08:19.541Z,5.40
2023-08-29T10:10:48.657Z,5.80
2023-08-29T10:13:19.563Z,5.13
2023-08-29T10:15:49.505Z,5.30
2023-08-29T10:18:17.903Z,4.72
2023-08-29T10:20:46.996Z,5.00
2023-08-29T10:23:14.558Z,5.45
2023-08-29T10:25:43.141Z,5.97
2023-08-29T10:28:12.174Z,7.40
2023-08-29T10:30:44.254Z,5.80
2023-08-29T10:33:13.715Z,5.22
2023-08-29T10:35:41.406Z,5.25
2023-08-29T10:38:14.445Z,4.55
2023-08-29T10:40:44.352Z,4.93
2023-08-29T10:43:19.104Z,5.47
2023-08-29T10:45:51.265Z,5.60
2023-08-29T10:48:22.383Z,5.15
2023-08-29T10:51:09.796Z,5.10
2023-08-29T10:53:37.891Z,4.75
2023-08-29T10:56:07.673Z,5.43
2023-08-29T10:58:37.578Z,5.60
2023-08-29T11:01:05.259Z,5.03
2023-08-29T11:03:42.203Z,5.35
2023-08-29T11:06:10.017Z,6.70
2023-08-29T11:08:37.686Z,6.13
2023-08-29T11:11:16.506Z,5.70
2023-08-29T11:13:57.818Z,4.90
2023-08-29T11:16:26.313Z,5.30
2023-08-29T11:19:11.097Z,4.55
2023-08-29T11:21:39.572Z,4.90
2023-08-29T11:26:40.426Z,4.28
2023-08-29T11:29:08.545Z,4.80
2023-08-29T11:31:40.044Z,4.50
2023-08-29T11:34:14.864Z,4.50
2023-08-29T11:36:42.468Z,4.80
2023-08-29T11:39:09.941Z,4.10
2023-08-29T11:41:50.427Z,4.55
2023-08-29T11:44:57.064Z,4.40
2023-08-29T11:47:15.053Z,3.97
2023-08-29T11:49:44.340Z,3.58
2023-08-29T11:52:11.918Z,3.55
2023-08-29T11:54:41.153Z,3.45
2023-08-29T11:57:11.607Z,3.50
2023-08-29T11:59:40.973Z,3.70
2023-08-29T12:02:08.801Z,4.18
2023-08-29T12:04:40.472Z,3.80
2023-08-29T12:07:13.361Z,3.63
2023-08-29T12:09:41.902Z,4.45
2023-08-29T12:12:09.854Z,4.20
2023-08-29T12:14:50.534Z,4.15
2023-08-29T12:17:18.102Z,4.88
2023-08-29T12:19:45.700Z,4.28
2023-08-29T12:22:15.011Z,5.28
2023-08-29T12:24:42.488Z,4.53
2023-08-29T12:27:09.990Z,4.80
2023-08-29T12:29:37.501Z,4.65
2023-08-29T12:32:06.523Z,4.78
2023-08-29T12:34:33.999Z,5.25
2023-08-29T12:37:01.459Z,4.88
2023-08-29T12:39:30.342Z,6.05
2023-08-29T12:41:57.897Z,6.30
2023-08-29T12:44:25.320Z,5.70
2023-08-29T12:46:52.846Z,5.57
2023-08-29T12:49:20.668Z,4.90
2023-08-29T12:51:48.175Z,4.78
2023-08-29T12:54:15.694Z,5.60
2023-08-29T12:56:44.628Z,5.55
2023-08-29T12:59:12.626Z,3.80
2023-08-29T13:01:40.187Z,4.25
2023-08-29T13:04:07.801Z,4.43
2023-08-29T13:06:35.670Z,4.50
2023-08-29T13:09:03.190Z,4.30
2023-08-29T13:11:30.766Z,3.85
2023-08-29T13:13:59.751Z,4.35
2023-08-29T13:16:32.447Z,4.00
2023-08-29T13:19:00.026Z,3.97
2023-08-29T13:21:27.468Z,4.10
2023-08-29T13:23:54.940Z,3.53
2023-08-29T13:26:22.835Z,3.85
2023-08-29T13:28:50.455Z,3.20
2023-08-29T13:31:19.500Z,2.90
2023-08-29T13:33:47.070Z,2.83
2023-08-29T13:36:14.512Z,3.00
2023-08-29T13:38:42.016Z,3.03
2023-08-29T13:41:09.570Z,3.35
2023-08-29T13:43:37.096Z,3.63
2023-08-29T13:46:04.659Z,3.10
2023-08-29T13:48:33.713Z,3.58
2023-08-29T13:51:01.286Z,4.13
2023-08-29T13:53:29.132Z,6.25
2023-08-29T13:55:56.566Z,4.82
2023-08-29T13:58:24.021Z,4.32
2023-08-29T14:00:51.520Z,4.93
2023-08-29T14:03:33.230Z,4.93
2023-08-29T14:06:06.706Z,4.80
2023-08-29T14:08:34.286Z,4.68
2023-08-29T14:11:05.522Z,4.28
2023-08-29T14:13:34.904Z,4.30
2023-08-29T14:16:03.524Z,5.30
2023-08-29T14:18:31.125Z,4.65
2023-08-29T14:20:58.700Z,5.63
2023-08-29T14:23:27.749Z,4.68
2023-08-29T14:25:55.427Z,4.55
2023-08-29T14:28:22.918Z,4.50
2023-08-29T14:30:50.375Z,4.50
2023-08-29T14:33:17.847Z,3.78
2023-08-29T14:35:45.370Z,4.10
2023-08-29T14:38:12.851Z,4.50
2023-08-29T14:40:41.793Z,4.47
2023-08-29T14:43:09.343Z,4.28
2023-08-29T14:45:41.449Z,5.15
2023-08-29T14:48:09.306Z,5.00
2023-08-29T14:50:37.113Z,3.85
2023-08-29T14:53:04.999Z,3.70
2023-08-29T14:55:32.791Z,4.22
2023-08-29T14:58:01.810Z,3.78
2023-08-29T15:00:29.403Z,3.70
2023-08-29T15:02:56.896Z,3.55
2023-08-29T15:05:24.831Z,3.95
2023-08-29T15:07:52.314Z,5.40
2023-08-29T15:10:19.823Z,4.10
2023-08-29T15:12:47.305Z,4.43
2023-08-29T15:15:17.880Z,4.93
2023-08-29T15:17:47.504Z,3.58
2023-08-29T15:20:15.600Z,3.92
2023-08-29T15:22:43.298Z,3.35
2023-08-29T15:25:11.705Z,3.47
2023-08-29T15:27:40.209Z,3.20
2023-08-29T15:30:09.181Z,3.30
2023-08-29T15:32:39.239Z,3.60
2023-08-29T15:35:08.353Z,4.20
2023-08-29T15:37:35.990Z,4.22
2023-08-29T15:40:03.863Z,3.20
2023-08-29T15:42:32.167Z,3.90
2023-08-29T15:45:00.717Z,3.65
2023-08-29T15:47:28.442Z,3.60
2023-08-29T15:49:57.627Z,4.07
2023-08-29T15:52:25.205Z,5.05
2023-08-29T15:54:53.273Z,4.70
2023-08-29T15:57:20.773Z,3.83
2023-08-29T15:59:49.466Z,4.35
2023-08-29T16:02:18.026Z,4.32
2023-08-29T16:04:47.162Z,4.07
2023-08-29T16:07:17.180Z,4.35
2023-08-29T16:09:45.640Z,4.07
2023-08-29T16:12:13.797Z,4.53
2023-08-29T16:14:41.899Z,4.13
2023-08-29T16:17:09.446Z,3.75
2023-08-29T16:19:37.040Z,4.10
2023-08-29T16:22:06.051Z,4.18
2023-08-29T16:24:35.977Z,3.53
2023-08-29T16:27:04.596Z,4.35
2023-08-29T16:29:32.130Z,4.15
2023-08-29T16:31:59.591Z,3.83
2023-08-29T16:34:27.293Z,5.38
2023-08-29T16:36:54.722Z,5.30
2023-08-29T16:39:22.173Z,4.82
2023-08-29T16:41:51.242Z,4.50
2023-08-29T16:44:19.030Z,4.00
2023-08-29T16:46:46.646Z,3.95
2023-08-29T16:49:15.104Z,4.63
2023-08-29T16:51:43.147Z,4.60
2023-08-29T16:54:10.879Z,4.40
2023-08-29T16:56:39.007Z,4.00
2023-08-29T16:59:08.192Z,4.18
2023-08-29T17:01:36.213Z,4.63
2023-08-29T17:04:05.777Z,5.30
2023-08-29T17:09:03.229Z,4.40
2023-08-29T17:11:30.997Z,4.57
2023-08-29T17:13:58.885Z,5.00
2023-08-29T17:16:27.775Z,5.80
2023-08-29T17:18:55.264Z,7.35
2023-08-29T17:21:22.767Z,5.47
2023-08-29T17:23:50.451Z,7.15
2023-08-29T17:26:17.883Z,8.65
2023-08-29T17:28:46.078Z,6.13
2023-08-29T17:31:15.955Z,5.80
2023-08-29T17:33:45.026Z,5.43
2023-08-29T17:36:14.286Z,4.57
2023-08-29T17:38:43.203Z,5.43
2023-08-29T17:41:10.817Z,10.95
2023-08-29T17:43:38.408Z,8.40
2023-08-29T17:46:06.432Z,5.50
2023-08-29T17:48:34.361Z,5.32
2023-08-29T17:51:03.243Z,5.00
2023-08-29T17:53:32.172Z,5.35
2023-08-29T17:56:00.413Z,6.35
2023-08-29T17:58:28.016Z,8.32
2023-08-29T18:00:55.825Z,6.28
2023-08-29T18:03:23.594Z,6.18
2023-08-29T18:05:53.574Z,9.18
2023-08-29T18:08:25.690Z,8.75
2023-08-29T18:10:54.414Z,6.05
2023-08-29T18:13:22.341Z,5.70
2023-08-29T18:15:50.033Z,4.50
2023-08-29T18:18:19.000Z,5.13
2023-08-29T18:20:48.037Z,5.65
2023-08-29T18:23:16.257Z,5.97
2023-08-29T18:25:45.836Z,5.10
2023-08-29T18:28:16.464Z,4.80
2023-08-29T18:30:44.564Z,6.28
2023-08-29T18:33:12.601Z,8.57
2023-08-29T18:35:40.751Z,6.32
2023-08-29T18:38:08.471Z,5.90
2023-08-29T18:40:36.369Z,5.47
2023-08-29T18:43:06.086Z,7.28
2023-08-29T18:45:34.170Z,5.72
2023-08-29T18:48:01.653Z,5.25
2023-08-29T18:50:29.185Z,9.02
2023-08-29T18:52:56.813Z,7.47
2023-08-29T18:55:24.530Z,6.40
2023-08-29T18:57:52.360Z,5.20
2023-08-29T19:00:21.269Z,5.00
2023-08-29T19:02:49.719Z,4.28
2023-08-29T19:05:17.288Z,3.53
2023-08-29T19:07:45.179Z,8.23
2023-08-29T19:10:12.905Z,4.75
2023-08-29T19:12:40.409Z,3.88
2023-08-29T19:15:08.768Z,8.30
2023-08-29T19:17:37.885Z,4.60
2023-08-29T19:20:06.398Z,4.82
2023-08-29T19:22:34.312Z,7.93
2023-08-29T19:25:02.027Z,6.32
2023-08-29T19:27:29.554Z,3.60
2023-08-29T19:29:57.156Z,5.72
2023-08-29T19:32:24.722Z,12.90
2023-08-29T19:34:53.740Z,3.53
2023-08-29T19:37:21.336Z,4.47
2023-08-29T19:39:48.900Z,4.10
2023-08-29T19:42:16.449Z,3.00
2023-08-29T19:44:43.970Z,4.25
2023-08-29T19:47:11.483Z,3.80
2023-08-29T19:49:39.826Z,3.00
2023-08-29T19:52:08.901Z,2.70
2023-08-29T19:54:36.568Z,2.90
2023-08-29T19:57:04.307Z,2.90
2023-08-29T19:59:32.088Z,2.58
2023-08-29T20:01:59.634Z,2.50
2023-08-29T20:04:27.147Z,2.30
2023-08-29T20:06:54.639Z,2.20
2023-08-29T20:09:23.674Z,2.92
2023-08-29T20:11:51.252Z,2.22
2023-08-29T20:14:18.710Z,2.13
2023-08-29T20:16:46.223Z,2.10
2023-08-29T20:19:13.723Z,2.03
2023-08-29T20:21:41.197Z,1.80
2023-08-29T20:24:09.043Z,1.70
2023-08-29T20:26:37.965Z,1.70
2023-08-29T20:29:05.587Z,1.60
2023-08-29T20:31:33.254Z,1.48
2023-08-29T20:34:00.956Z,1.65
2023-08-29T20:36:28.800Z,1.65
2023-08-29T20:38:56.283Z,1.35
2023-08-29T20:41:23.836Z,1.33
2023-08-29T20:43:52.903Z,1.55
2023-08-29T20:46:20.858Z,1.80
2023-08-29T20:48:48.313Z,1.27
2023-08-29T20:51:15.806Z,1.17
2023-08-29T20:53:43.569Z,1.70
2023-08-29T20:56:11.177Z,1.58
2023-08-29T20:58:39.700Z,1.20
2023-08-29T21:01:09.446Z,1.50
2023-08-29T21:06:05.027Z,1.58
2023-08-29T21:08:32.542Z,1.58
2023-08-29T21:11:00.140Z,1.58
2023-08-29T21:13:27.662Z,1.60
2023-08-29T21:15:55.154Z,1.63
2023-08-29T21:18:24.005Z,1.23
2023-08-29T21:20:53.472Z,1.17
2023-08-29T21:23:20.919Z,1.45
2023-08-29T21:25:48.838Z,1.20
2023-08-29T21:28:17.621Z,1.30
2023-08-29T21:30:45.850Z,1.10
2023-08-29T21:33:14.150Z,1.20
2023-08-29T21:35:43.970Z,1.27
2023-08-29T21:38:12.520Z,1.50
2023-08-29T21:40:41.152Z,1.40
2023-08-29T21:43:10.289Z,1.27
2023-08-29T21:45:38.366Z,1.05
2023-08-29T21:48:07.599Z,1.38
2023-08-29T21:50:38.455Z,1.00
2023-08-29T21:53:09.150Z,1.00
2023-08-29T21:55:37.260Z,1.33
2023-08-29T21:58:06.086Z,1.67
2023-08-29T22:00:35.889Z,1.20
2023-08-29T22:03:03.753Z,1.08
2023-08-29T22:05:32.112Z,0.90
2023-08-29T22:08:00.273Z,1.10
2023-08-29T22:10:29.206Z,0.90
2023-08-29T22:12:56.631Z,0.65
2023-08-29T22:15:24.088Z,0.80
2023-08-29T22:17:51.582Z,1.00
2023-08-29T22:20:19.375Z,1.10
2023-08-29T22:22:46.881Z,0.93
2023-08-29T22:25:14.977Z,1.23
2023-08-29T22:27:43.996Z,0.93
2023-08-29T22:30:12.565Z,0.63
2023-08-29T22:32:40.479Z,0.83
2023-08-29T22:35:08.592Z,0.88
2023-08-29T22:37:36.127Z,0.95
2023-08-29T22:40:03.997Z,1.00
2023-08-29T22:42:31.517Z,0.80
2023-08-29T22:45:00.402Z,1.00
2023-08-29T22:47:28.299Z,1.20
2023-08-29T22:49:56.320Z,0.85
2023-08-29T22:52:24.331Z,1.30
2023-08-29T22:54:52.294Z,0.98
2023-08-29T22:57:19.752Z,0.90
2023-08-29T22:59:47.391Z,0.70
2023-08-29T23:02:16.381Z,0.90
2023-08-29T23:04:43.831Z,1.20
2023-08-29T23:07:11.830Z,0.85
2023-08-29T23:09:39.407Z,0.80
2023-08-29T23:12:07.518Z,1.15
2023-08-29T23:14:34.996Z,1.02
2023-08-29T23:17:02.507Z,0.90
2023-08-29T23:19:31.416Z,1.15
2023-08-29T23:21:58.913Z,0.88
2023-08-29T23:24:26.466Z,0.80
2023-08-29T23:26:53.895Z,0.98
2023-08-29T23:29:21.380Z,0.73
2023-08-29T23:31:48.929Z,0.75
2023-08-29T23:34:16.497Z,0.73
2023-08-29T23:36:45.629Z,0.60
2023-08-29T23:39:13.117Z,0.57
2023-08-29T23:41:40.560Z,1.00
2023-08-29T23:44:08.098Z,0.88
2023-08-29T23:46:35.611Z,0.80
2023-08-29T23:49:03.096Z,0.70
2023-08-29T23:51:30.563Z,0.88
2023-08-29T23:53:59.473Z,0.93
2023-08-29T23:56:26.965Z,0.75
2023-08-29T23:58:55.411Z,1.15
